createdAt,value
2017-12-13T00:02:24.579Z,1.27
2017-12-13T00:04:50.346Z,1.28
2017-12-13T00:07:16.079Z,1.29
2017-12-13T00:09:41.820Z,1.24
2017-12-13T00:12:07.571Z,1.27
2017-12-13T00:14:33.304Z,1.31
2017-12-13T00:17:00.970Z,1.33
2017-12-13T00:19:26.747Z,1.33
2017-12-13T00:21:52.711Z,1.32
2017-12-13T00:24:18.443Z,1.28
2017-12-13T00:26:44.196Z,1.29
2017-12-13T00:29:09.936Z,1.29
2017-12-13T00:31:35.696Z,1.28
2017-12-13T00:34:01.909Z,1.30
2017-12-13T00:36:27.675Z,1.30
2017-12-13T00:38:53.406Z,1.31
2017-12-13T00:41:19.173Z,1.31
2017-12-13T00:43:45.977Z,1.32
2017-12-13T00:46:12.037Z,1.30
2017-12-13T00:48:37.766Z,1.37
2017-12-13T00:51:05.052Z,1.37
2017-12-13T00:53:30.984Z,1.37
2017-12-13T00:55:59.780Z,1.34
2017-12-13T00:58:26.811Z,1.36
2017-12-13T01:00:53.221Z,1.43
2017-12-13T01:03:19.691Z,1.41
2017-12-13T01:05:48.133Z,1.47
2017-12-13T01:08:14.769Z,1.43
2017-12-13T01:10:41.353Z,1.45
2017-12-13T01:13:08.858Z,1.51
2017-12-13T01:15:35.471Z,1.51
2017-12-13T01:18:04.653Z,1.46
2017-12-13T01:20:31.002Z,1.47
2017-12-13T01:23:00.236Z,1.46
2017-12-13T01:25:26.799Z,1.44
2017-12-13T01:27:53.322Z,1.49
2017-12-13T01:30:20.126Z,1.51
2017-12-13T01:32:47.474Z,1.56
2017-12-13T01:35:13.821Z,1.52
2017-12-13T01:37:41.908Z,1.51
2017-12-13T01:40:08.291Z,1.55
2017-12-13T01:42:35.032Z,1.47
2017-12-13T01:45:03.347Z,1.44
2017-12-13T01:47:30.222Z,1.47
2017-12-13T01:49:58.060Z,1.46
2017-12-13T01:52:25.364Z,1.44
2017-12-13T01:54:52.352Z,1.42
2017-12-13T01:57:21.696Z,1.48
2017-12-13T01:59:49.767Z,1.45
2017-12-13T02:02:16.067Z,1.43
2017-12-13T02:04:43.941Z,1.43
2017-12-13T02:07:13.385Z,1.39
2017-12-13T02:09:41.788Z,1.39
2017-12-13T02:12:09.122Z,1.34
2017-12-13T02:14:35.781Z,1.34
2017-12-13T02:17:02.625Z,1.30
2017-12-13T02:19:34.375Z,1.29
2017-12-13T02:22:02.714Z,1.34
2017-12-13T02:24:31.737Z,1.31
2017-12-13T02:27:01.241Z,1.33
2017-12-13T02:29:31.227Z,1.32
2017-12-13T02:32:04.629Z,1.36
2017-12-13T02:34:32.644Z,1.35
2017-12-13T02:37:02.248Z,1.31
2017-12-13T02:39:28.949Z,1.34
2017-12-13T02:41:57.837Z,1.31
2017-12-13T02:44:29.463Z,1.34
2017-12-13T02:46:57.863Z,1.32
2017-12-13T02:49:25.770Z,1.32
2017-12-13T02:51:55.110Z,1.32
2017-12-13T02:54:23.631Z,1.32
2017-12-13T02:56:52.257Z,1.27
2017-12-13T02:59:23.765Z,1.29
2017-12-13T03:01:51.749Z,1.29
2017-12-13T03:04:19.371Z,1.27
2017-12-13T03:06:46.809Z,1.29
2017-12-13T03:09:16.706Z,1.25
2017-12-13T03:11:44.554Z,1.17
2017-12-13T03:14:17.979Z,1.19
2017-12-13T03:16:46.684Z,1.11
2017-12-13T03:19:14.758Z,1.13
2017-12-13T03:21:42.989Z,1.12
2017-12-13T03:24:10.809Z,1.11
2017-12-13T03:26:39.417Z,1.09
2017-12-13T03:29:08.010Z,1.12
2017-12-13T03:31:33.809Z,1.09
2017-12-13T03:33:59.552Z,1.09
2017-12-13T03:36:25.291Z,1.03
2017-12-13T03:38:51.052Z,1.07
2017-12-13T03:41:16.782Z,1.06
2017-12-13T03:43:42.522Z,1.04
2017-12-13T03:46:09.941Z,1.10
2017-12-13T03:48:35.767Z,1.07
2017-12-13T03:51:01.501Z,1.02
2017-12-13T03:53:27.280Z,1.07
2017-12-13T03:55:53.019Z,1.06
2017-12-13T03:58:18.773Z,1.09
2017-12-13T04:00:44.508Z,1.08
2017-12-13T04:03:10.273Z,1.04
2017-12-13T04:05:36.006Z,1.08
2017-12-13T04:08:03.286Z,1.06
2017-12-13T04:10:30.000Z,1.11
2017-12-13T04:12:55.821Z,1.12
2017-12-13T04:15:21.572Z,1.10
2017-12-13T04:17:47.320Z,0.92
2017-12-13T04:20:13.071Z,1.10
2017-12-13T04:22:38.813Z,1.11
2017-12-13T04:25:04.582Z,1.14
2017-12-13T04:27:30.331Z,1.15
2017-12-13T04:29:56.080Z,1.14
2017-12-13T04:32:21.846Z,1.17
2017-12-13T04:34:47.601Z,1.10
2017-12-13T04:37:13.353Z,1.12
2017-12-13T04:39:39.170Z,1.12
2017-12-13T04:42:04.916Z,1.15
2017-12-13T04:44:30.675Z,1.12
2017-12-13T04:46:56.411Z,1.13
2017-12-13T04:49:22.160Z,0.97
2017-12-13T04:51:47.900Z,1.13
2017-12-13T04:54:13.678Z,1.09
2017-12-13T04:56:39.408Z,1.11
2017-12-13T04:59:05.147Z,1.10
2017-12-13T05:01:30.920Z,1.10
2017-12-13T05:03:56.659Z,1.09
2017-12-13T05:06:22.402Z,1.09
2017-12-13T05:08:48.151Z,1.07
2017-12-13T05:11:13.903Z,1.08
2017-12-13T05:13:39.656Z,1.10
2017-12-13T05:16:05.395Z,1.14
2017-12-13T05:18:31.135Z,1.17
2017-12-13T05:20:56.888Z,1.15
2017-12-13T05:23:22.634Z,1.19
2017-12-13T05:25:48.389Z,1.17
2017-12-13T05:28:14.143Z,1.13
2017-12-13T05:30:39.927Z,1.15
2017-12-13T05:33:05.664Z,1.16
2017-12-13T05:35:31.435Z,1.13
2017-12-13T05:37:57.184Z,1.15
2017-12-13T05:40:23.063Z,1.14
2017-12-13T05:42:48.823Z,1.14
2017-12-13T05:45:14.603Z,1.16
2017-12-13T05:47:43.811Z,1.19
2017-12-13T05:50:13.347Z,1.14
2017-12-13T05:52:42.511Z,1.17
2017-12-13T05:55:08.314Z,1.16
2017-12-13T05:57:34.088Z,1.10
2017-12-13T05:59:59.824Z,1.10
2017-12-13T06:02:25.588Z,1.11
2017-12-13T06:04:51.337Z,1.12
2017-12-13T06:07:17.091Z,1.10
2017-12-13T06:09:42.832Z,1.12
2017-12-13T06:12:08.601Z,1.12
2017-12-13T06:14:34.336Z,1.12
2017-12-13T06:17:00.088Z,1.11
2017-12-13T06:19:25.828Z,1.10
2017-12-13T06:21:51.563Z,1.10
2017-12-13T06:24:17.310Z,1.08
2017-12-13T06:26:43.046Z,1.07
2017-12-13T06:29:08.795Z,1.08
2017-12-13T06:31:34.546Z,1.10
2017-12-13T06:34:00.308Z,1.12
2017-12-13T06:36:26.041Z,1.16
2017-12-13T06:38:51.804Z,1.15
2017-12-13T06:41:17.534Z,1.14
2017-12-13T06:43:43.284Z,1.16
2017-12-13T06:46:09.016Z,1.19
2017-12-13T06:48:34.758Z,1.19
2017-12-13T06:51:00.511Z,1.21
2017-12-13T06:53:26.265Z,1.20
2017-12-13T06:55:52.020Z,1.23
2017-12-13T06:58:17.792Z,1.26
2017-12-13T07:00:43.568Z,1.24
2017-12-13T07:03:09.316Z,1.20
2017-12-13T07:05:35.047Z,1.21
2017-12-13T07:08:00.781Z,1.18
2017-12-13T07:10:26.544Z,1.21
2017-12-13T07:12:52.278Z,1.27
2017-12-13T07:15:18.043Z,1.24
2017-12-13T07:17:43.788Z,1.19
2017-12-13T07:20:09.539Z,1.23
2017-12-13T07:22:35.286Z,1.26
2017-12-13T07:25:01.040Z,1.28
2017-12-13T07:27:26.788Z,1.27
2017-12-13T07:29:52.544Z,1.28
2017-12-13T07:32:18.307Z,1.28
2017-12-13T07:34:44.055Z,1.27
2017-12-13T07:37:09.804Z,1.28
2017-12-13T07:39:35.550Z,1.25
2017-12-13T07:42:01.293Z,1.27
2017-12-13T07:44:27.052Z,1.27
2017-12-13T07:46:52.795Z,1.28
2017-12-13T07:49:18.543Z,1.24
2017-12-13T07:51:44.288Z,1.27
2017-12-13T07:54:10.024Z,1.29
2017-12-13T07:56:35.784Z,1.31
2017-12-13T07:59:01.534Z,1.34
2017-12-13T08:01:27.295Z,1.32
2017-12-13T08:03:53.036Z,1.30
2017-12-13T08:06:18.807Z,1.30
2017-12-13T08:08:44.547Z,1.32
2017-12-13T08:11:10.318Z,1.32
2017-12-13T08:13:36.052Z,1.35
2017-12-13T08:16:01.808Z,1.31
2017-12-13T08:18:27.555Z,1.34
2017-12-13T08:20:53.300Z,1.34
2017-12-13T08:23:19.034Z,1.30
2017-12-13T08:25:44.775Z,1.37
2017-12-13T08:28:10.544Z,1.35
2017-12-13T08:30:36.282Z,1.37
2017-12-13T08:33:02.047Z,1.38
2017-12-13T08:35:27.784Z,1.44
2017-12-13T08:37:53.543Z,1.51
2017-12-13T08:40:19.274Z,1.53
2017-12-13T08:42:45.041Z,1.58
2017-12-13T08:45:10.771Z,1.58
2017-12-13T08:47:36.544Z,1.62
2017-12-13T08:50:02.299Z,1.64
2017-12-13T08:52:28.044Z,1.71
2017-12-13T08:54:53.788Z,1.75
2017-12-13T08:57:19.563Z,1.76
2017-12-13T08:59:45.295Z,1.82
2017-12-13T09:02:11.040Z,1.81
2017-12-13T09:04:36.807Z,1.87
2017-12-13T09:07:02.563Z,1.91
2017-12-13T09:09:28.332Z,1.95
2017-12-13T09:11:54.074Z,1.94
2017-12-13T09:14:19.821Z,1.97
2017-12-13T09:16:45.555Z,2.01
2017-12-13T09:19:11.307Z,2.03
2017-12-13T09:21:37.043Z,2.07
2017-12-13T09:24:02.803Z,2.08
2017-12-13T09:26:28.546Z,2.11
2017-12-13T09:28:54.291Z,2.14
2017-12-13T09:31:20.047Z,2.18
2017-12-13T09:33:45.812Z,2.23
2017-12-13T09:36:11.574Z,2.26
2017-12-13T09:38:37.324Z,2.25
2017-12-13T09:41:03.080Z,2.27
2017-12-13T09:43:28.872Z,2.28
2017-12-13T09:45:54.579Z,2.28
2017-12-13T09:48:20.345Z,2.27
2017-12-13T09:50:46.099Z,2.28
2017-12-13T09:53:11.831Z,2.30
2017-12-13T09:55:37.584Z,2.26
2017-12-13T09:58:03.343Z,2.31
2017-12-13T10:00:29.095Z,2.34
2017-12-13T10:02:54.840Z,2.35
2017-12-13T10:05:20.600Z,2.35
2017-12-13T10:07:46.347Z,2.40
2017-12-13T10:10:12.107Z,2.40
2017-12-13T10:12:37.871Z,2.44
2017-12-13T10:15:03.620Z,2.44
2017-12-13T10:17:29.376Z,2.44
2017-12-13T10:19:55.109Z,2.45
2017-12-13T10:22:20.862Z,2.48
2017-12-13T10:24:46.601Z,2.50
2017-12-13T10:27:12.343Z,2.52
2017-12-13T10:29:38.083Z,2.47
2017-12-13T10:32:03.851Z,2.46
2017-12-13T10:34:29.591Z,2.45
2017-12-13T10:36:55.344Z,2.48
2017-12-13T10:39:21.144Z,2.50
2017-12-13T10:41:46.905Z,2.51
2017-12-13T10:44:12.656Z,2.52
2017-12-13T10:46:38.413Z,2.52
2017-12-13T10:49:04.184Z,2.55
2017-12-13T10:51:29.952Z,2.55
2017-12-13T10:53:55.707Z,2.53
2017-12-13T10:56:21.484Z,2.56
2017-12-13T10:58:47.246Z,2.60
2017-12-13T11:01:12.991Z,2.56
2017-12-13T11:03:38.771Z,2.62
2017-12-13T11:06:04.511Z,2.61
2017-12-13T11:08:30.295Z,2.63
2017-12-13T11:10:56.038Z,2.65
2017-12-13T11:13:21.796Z,2.67
2017-12-13T11:15:47.535Z,2.63
2017-12-13T11:18:13.316Z,2.64
2017-12-13T11:20:39.067Z,2.69
2017-12-13T11:23:04.845Z,2.68
2017-12-13T11:25:30.604Z,2.71
2017-12-13T11:27:56.384Z,2.73
2017-12-13T11:30:22.116Z,2.74
2017-12-13T11:32:47.886Z,2.76
2017-12-13T11:35:13.626Z,2.76
2017-12-13T11:37:39.385Z,2.76
2017-12-13T11:40:05.146Z,2.77
2017-12-13T11:42:30.909Z,2.76
2017-12-13T11:44:56.667Z,2.79
2017-12-13T11:47:22.427Z,2.80
2017-12-13T11:49:48.199Z,2.83
2017-12-13T11:52:13.957Z,2.83
2017-12-13T11:54:39.706Z,2.75
2017-12-13T11:57:05.460Z,2.74
2017-12-13T11:59:31.242Z,2.72
2017-12-13T12:01:57.000Z,2.65
2017-12-13T12:04:22.782Z,2.56
2017-12-13T12:06:48.556Z,2.47
2017-12-13T12:09:14.306Z,2.45
2017-12-13T12:11:40.068Z,2.46
2017-12-13T12:14:05.868Z,2.43
2017-12-13T12:16:31.616Z,2.43
2017-12-13T12:18:57.383Z,2.36
2017-12-13T12:21:23.152Z,2.28
2017-12-13T12:23:48.921Z,2.21
2017-12-13T12:26:14.723Z,2.19
2017-12-13T12:28:40.508Z,2.22
2017-12-13T12:31:06.328Z,2.26
2017-12-13T12:33:32.096Z,2.21
2017-12-13T12:35:57.855Z,2.14
2017-12-13T12:38:23.617Z,2.13
2017-12-13T12:40:49.400Z,2.09
2017-12-13T12:43:15.171Z,2.06
2017-12-13T12:45:40.952Z,2.02
2017-12-13T12:48:06.691Z,1.98
2017-12-13T12:50:32.464Z,1.96
2017-12-13T12:52:58.240Z,1.95
2017-12-13T12:55:23.984Z,1.93
2017-12-13T12:57:49.784Z,1.86
2017-12-13T13:00:15.538Z,1.85
2017-12-13T13:02:41.322Z,1.82
2017-12-13T13:05:07.074Z,1.80
2017-12-13T13:07:32.833Z,1.77
2017-12-13T13:09:58.584Z,1.77
2017-12-13T13:12:24.347Z,1.77
2017-12-13T13:14:50.105Z,1.78
2017-12-13T13:17:15.870Z,1.79
2017-12-13T13:19:41.639Z,1.81
2017-12-13T13:22:07.401Z,1.85
2017-12-13T13:24:33.151Z,1.83
2017-12-13T13:26:58.927Z,1.83
2017-12-13T13:29:24.679Z,1.76
2017-12-13T13:31:50.470Z,1.75
2017-12-13T13:34:16.215Z,1.73
2017-12-13T13:36:41.976Z,1.75
2017-12-13T13:39:07.737Z,1.72
2017-12-13T13:41:33.486Z,1.73
2017-12-13T13:43:59.252Z,1.73
2017-12-13T13:46:24.990Z,1.70
2017-12-13T13:48:50.755Z,1.67
2017-12-13T13:51:16.500Z,1.64
2017-12-13T13:53:42.267Z,1.63
2017-12-13T13:56:08.003Z,1.59
2017-12-13T13:58:33.777Z,1.63
2017-12-13T14:00:59.516Z,1.65
2017-12-13T14:03:25.284Z,1.69
2017-12-13T14:05:51.048Z,1.67
2017-12-13T14:08:16.795Z,1.67
2017-12-13T14:10:42.539Z,1.75
2017-12-13T14:13:08.295Z,1.73
2017-12-13T14:15:34.043Z,1.74
2017-12-13T14:17:59.785Z,1.76
2017-12-13T14:20:25.561Z,1.76
2017-12-13T14:22:51.340Z,1.77
2017-12-13T14:25:17.100Z,1.77
2017-12-13T14:27:42.846Z,1.76
2017-12-13T14:30:08.616Z,1.80
2017-12-13T14:32:34.375Z,1.82
2017-12-13T14:35:00.126Z,1.84
2017-12-13T14:37:26.008Z,1.87
2017-12-13T14:39:51.767Z,1.87
2017-12-13T14:42:17.537Z,1.86
2017-12-13T14:44:43.300Z,1.87
2017-12-13T14:47:09.041Z,1.94
2017-12-13T14:49:34.799Z,1.93
2017-12-13T14:52:00.555Z,1.94
2017-12-13T14:54:26.322Z,1.92
2017-12-13T14:56:52.063Z,1.96
2017-12-13T14:59:17.828Z,2.01
2017-12-13T15:01:43.562Z,1.99
2017-12-13T15:04:09.343Z,1.99
2017-12-13T15:06:35.084Z,2.01
2017-12-13T15:09:00.835Z,1.99
2017-12-13T15:11:26.597Z,2.01
2017-12-13T15:13:52.340Z,2.03
2017-12-13T15:16:18.104Z,2.03
2017-12-13T15:18:43.871Z,2.01
2017-12-13T15:21:09.632Z,2.07
2017-12-13T15:23:35.403Z,2.08
2017-12-13T15:26:01.173Z,2.08
2017-12-13T15:28:26.912Z,2.15
2017-12-13T15:30:52.685Z,2.06
2017-12-13T15:33:18.456Z,2.06
2017-12-13T15:35:44.224Z,2.07
2017-12-13T15:38:09.972Z,2.03
2017-12-13T15:40:35.733Z,1.99
2017-12-13T15:43:01.484Z,2.03
2017-12-13T15:45:27.301Z,1.99
2017-12-13T15:47:53.063Z,1.95
2017-12-13T15:50:18.815Z,1.97
2017-12-13T15:52:44.600Z,1.93
2017-12-13T15:55:10.367Z,1.89
2017-12-13T15:57:36.127Z,1.87
2017-12-13T16:00:01.904Z,1.78
2017-12-13T16:02:27.682Z,1.73
2017-12-13T16:04:53.425Z,1.73
2017-12-13T16:07:19.205Z,1.67
2017-12-13T16:09:44.958Z,1.64
2017-12-13T16:12:10.721Z,1.68
2017-12-13T16:14:36.459Z,1.68
2017-12-13T16:17:02.236Z,1.61
2017-12-13T16:19:27.978Z,1.59
2017-12-13T16:21:53.782Z,1.52
2017-12-13T16:24:19.533Z,1.49
2017-12-13T16:26:45.284Z,1.51
2017-12-13T16:29:11.097Z,1.50
2017-12-13T16:31:36.862Z,1.53
2017-12-13T16:34:02.633Z,1.61
2017-12-13T16:36:28.407Z,1.60
2017-12-13T16:38:54.176Z,1.45
2017-12-13T16:41:19.962Z,1.37
2017-12-13T16:43:45.725Z,1.38
2017-12-13T16:46:11.490Z,1.37
2017-12-13T16:48:37.262Z,1.34
2017-12-13T16:51:03.028Z,1.32
2017-12-13T16:53:28.776Z,1.37
2017-12-13T16:55:54.536Z,1.39
2017-12-13T16:58:20.297Z,1.39
2017-12-13T17:00:46.055Z,1.42
2017-12-13T17:03:11.828Z,1.39
2017-12-13T17:05:37.588Z,1.47
2017-12-13T17:08:03.398Z,1.44
2017-12-13T17:10:29.156Z,1.42
2017-12-13T17:12:54.911Z,1.34
2017-12-13T17:15:20.674Z,1.35
2017-12-13T17:17:46.479Z,1.39
2017-12-13T17:20:12.252Z,1.36
2017-12-13T17:22:38.015Z,1.39
2017-12-13T17:25:03.804Z,1.41
2017-12-13T17:27:29.554Z,1.40
2017-12-13T17:29:55.320Z,1.42
2017-12-13T17:32:21.096Z,1.40
2017-12-13T17:34:46.873Z,1.45
2017-12-13T17:37:12.639Z,1.47
2017-12-13T17:39:38.395Z,1.44
2017-12-13T17:42:04.144Z,1.41
2017-12-13T17:44:29.925Z,1.38
2017-12-13T17:46:55.726Z,1.36
2017-12-13T17:49:21.517Z,1.34
2017-12-13T17:51:47.269Z,1.32
2017-12-13T17:54:13.027Z,1.34
2017-12-13T17:56:38.792Z,1.34
2017-12-13T17:59:04.530Z,1.31
2017-12-13T18:01:30.299Z,1.31
2017-12-13T18:03:56.064Z,1.32
2017-12-13T18:06:21.829Z,1.33
2017-12-13T18:08:47.591Z,1.35
2017-12-13T18:11:13.354Z,1.40
2017-12-13T18:13:39.101Z,1.34
2017-12-13T18:16:04.863Z,1.36
2017-12-13T18:18:30.613Z,1.37
2017-12-13T18:20:56.369Z,1.43
2017-12-13T18:23:22.126Z,1.41
2017-12-13T18:25:47.904Z,1.46
2017-12-13T18:28:13.704Z,1.44
2017-12-13T18:30:39.473Z,1.51
2017-12-13T18:33:05.256Z,1.54
2017-12-13T18:35:31.052Z,1.51
2017-12-13T18:37:56.820Z,1.57
2017-12-13T18:40:22.617Z,1.64
2017-12-13T18:42:48.384Z,1.64
2017-12-13T18:45:14.125Z,1.67
2017-12-13T18:47:39.886Z,1.59
2017-12-13T18:50:05.651Z,1.69
2017-12-13T18:52:31.425Z,1.69
2017-12-13T18:54:57.961Z,1.68
2017-12-13T18:57:23.728Z,1.67
2017-12-13T18:59:49.525Z,1.71
2017-12-13T19:02:15.286Z,1.71
2017-12-13T19:04:41.275Z,1.74
2017-12-13T19:07:07.040Z,1.70
2017-12-13T19:09:32.799Z,1.63
2017-12-13T19:11:58.571Z,1.69
2017-12-13T19:14:24.315Z,1.63
2017-12-13T19:16:50.052Z,1.65
2017-12-13T19:19:15.826Z,1.70
2017-12-13T19:21:41.575Z,1.78
2017-12-13T19:24:07.372Z,1.76
2017-12-13T19:26:33.529Z,1.78
2017-12-13T19:28:59.451Z,1.77
2017-12-13T19:31:25.215Z,1.78
2017-12-13T19:33:50.982Z,1.84
2017-12-13T19:36:16.736Z,1.86
2017-12-13T19:38:42.541Z,1.90
2017-12-13T19:41:08.305Z,1.95
2017-12-13T19:43:34.068Z,1.93
2017-12-13T19:45:59.817Z,1.94
2017-12-13T19:48:25.576Z,2.02
2017-12-13T19:50:51.331Z,2.01
2017-12-13T19:53:17.088Z,1.96
2017-12-13T19:55:42.852Z,1.94
2017-12-13T19:58:08.608Z,1.95
2017-12-13T20:00:34.357Z,2.06
2017-12-13T20:03:00.162Z,2.04
2017-12-13T20:05:25.934Z,2.04
2017-12-13T20:07:51.696Z,2.10
2017-12-13T20:10:17.463Z,2.11
2017-12-13T20:12:43.217Z,2.12
2017-12-13T20:15:13.891Z,2.11
2017-12-13T20:17:39.629Z,2.10
2017-12-13T20:20:05.404Z,2.09
2017-12-13T20:22:31.154Z,2.12
2017-12-13T20:24:56.912Z,2.10
2017-12-13T20:27:22.648Z,2.13
2017-12-13T20:29:48.407Z,2.17
2017-12-13T20:32:14.168Z,2.20
2017-12-13T20:34:39.938Z,2.24
2017-12-13T20:37:05.700Z,2.27
2017-12-13T20:39:31.460Z,2.24
2017-12-13T20:41:57.266Z,2.25
2017-12-13T20:44:22.984Z,2.31
2017-12-13T20:46:48.766Z,2.33
2017-12-13T20:49:14.513Z,2.35
2017-12-13T20:51:40.279Z,2.37
2017-12-13T20:54:13.172Z,2.37
2017-12-13T20:56:38.953Z,2.35
2017-12-13T20:59:04.709Z,2.34
2017-12-13T21:01:30.486Z,2.38
2017-12-13T21:03:56.250Z,2.36
2017-12-13T21:06:22.010Z,2.40
2017-12-13T21:08:47.763Z,2.23
2017-12-13T21:11:13.526Z,2.47
2017-12-13T21:13:39.276Z,2.49
2017-12-13T21:16:05.039Z,2.52
2017-12-13T21:18:30.788Z,2.57
2017-12-13T21:20:56.564Z,2.51
2017-12-13T21:23:22.369Z,2.61
2017-12-13T21:25:48.127Z,2.66
2017-12-13T21:28:13.871Z,2.65
2017-12-13T21:30:39.639Z,2.70
2017-12-13T21:33:05.403Z,2.73
2017-12-13T21:35:31.198Z,2.76
2017-12-13T21:37:56.981Z,2.75
2017-12-13T21:40:22.867Z,2.79
2017-12-13T21:42:48.680Z,2.79
2017-12-13T21:45:14.431Z,2.78
2017-12-13T21:47:40.186Z,2.81
2017-12-13T21:50:05.927Z,2.83
2017-12-13T21:52:31.692Z,2.87
2017-12-13T21:54:57.451Z,2.83
2017-12-13T21:57:23.229Z,2.88
2017-12-13T21:59:49.004Z,2.87
2017-12-13T22:02:14.763Z,2.88
2017-12-13T22:04:40.530Z,2.86
2017-12-13T22:07:06.292Z,2.87
2017-12-13T22:09:32.058Z,2.90
2017-12-13T22:12:04.619Z,2.93
2017-12-13T22:14:30.373Z,2.94
2017-12-13T22:16:56.131Z,2.94
2017-12-13T22:19:21.875Z,2.98
2017-12-13T22:21:47.642Z,2.96
2017-12-13T22:24:13.397Z,2.99
2017-12-13T22:26:39.223Z,2.99
2017-12-13T22:29:04.953Z,2.98
2017-12-13T22:31:30.699Z,2.98
2017-12-13T22:33:56.466Z,2.98
2017-12-13T22:36:22.209Z,2.98
2017-12-13T22:38:47.984Z,3.01
2017-12-13T22:41:13.748Z,3.00
2017-12-13T22:43:39.534Z,2.99
2017-12-13T22:46:05.298Z,3.03
2017-12-13T22:48:31.061Z,3.06
2017-12-13T22:50:56.826Z,3.05
2017-12-13T22:53:22.595Z,3.07
2017-12-13T22:55:55.400Z,3.12
2017-12-13T22:58:21.169Z,3.11
2017-12-13T23:00:49.981Z,3.15
2017-12-13T23:03:15.753Z,3.08
2017-12-13T23:05:41.517Z,3.10
2017-12-13T23:08:07.317Z,3.09
2017-12-13T23:10:33.063Z,3.11
2017-12-13T23:12:58.821Z,3.10
2017-12-13T23:15:24.590Z,3.10
2017-12-13T23:17:50.343Z,3.09
2017-12-13T23:20:16.113Z,3.13
2017-12-13T23:22:41.867Z,3.11
2017-12-13T23:25:07.641Z,3.09
2017-12-13T23:27:33.411Z,3.01
2017-12-13T23:29:59.167Z,3.00
2017-12-13T23:32:24.927Z,3.01
2017-12-13T23:34:50.694Z,2.95
2017-12-13T23:37:16.444Z,2.87
2017-12-13T23:39:42.299Z,2.85
2017-12-13T23:42:08.066Z,2.79
2017-12-13T23:44:33.827Z,2.74
2017-12-13T23:46:59.594Z,2.69
2017-12-13T23:49:25.384Z,2.70
2017-12-13T23:51:51.127Z,2.64
2017-12-13T23:54:16.908Z,2.54
2017-12-13T23:56:42.677Z,2.49
2017-12-13T23:59:08.438Z,2.44
